sensor_id;sensor_type;location;lat;lon;timestamp;temperature;humidity
5956;DHT22;3004;48.080;11.600;2022-08-16T00:02:10;17.40;99.90
5956;DHT22;3004;48.080;11.600;2022-08-16T00:04:37;17.30;99.90
5956;DHT22;3004;48.080;11.600;2022-08-16T00:07:06;17.30;99.90
5956;DHT22;3004;48.080;11.600;2022-08-16T00:09:33;17.30;99.90
5956;DHT22;3004;48.080;11.600;2022-08-16T00:12:00;17.40;99.90
5956;DHT22;3004;48.080;11.600;2022-08-16T00:14:30;17.40;99.90
5956;DHT22;3004;48.080;11.600;2022-08-16T00:16:59;17.40;99.90
5956;DHT22;3004;48.080;11.600;2022-08-16T00:19:31;17.30;99.90
5956;DHT22;3004;48.080;11.600;2022-08-16T00:21:59;17.40;99.90
5956;DHT22;3004;48.080;11.600;2022-08-16T00:24:27;17.30;99.90
5956;DHT22;3004;48.080;11.600;2022-08-16T00:26:54;17.30;99.90
5956;DHT22;3004;48.080;11.600;2022-08-16T00:29:21;17.30;99.90
5956;DHT22;3004;48.080;11.600;2022-08-16T00:31:49;17.30;99.90
5956;DHT22;3004;48.080;11.600;2022-08-16T00:34:20;17.20;99.90
5956;DHT22;3004;48.080;11.600;2022-08-16T00:36:48;17.20;99.90
5956;DHT22;3004;48.080;11.600;2022-08-16T00:39:16;17.20;99.90
5956;DHT22;3004;48.080;11.600;2022-08-16T00:41:46;17.20;99.90
5956;DHT22;3004;48.080;11.600;2022-08-16T00:44:15;17.20;99.90
5956;DHT22;3004;48.080;11.600;2022-08-16T00:46:47;17.10;99.90
5956;DHT22;3004;48.080;11.600;2022-08-16T00:49:15;17.10;99.90
5956;DHT22;3004;48.080;11.600;2022-08-16T00:51:45;17.20;99.90
5956;DHT22;3004;48.080;11.600;2022-08-16T00:54:12;17.10;99.90
5956;DHT22;3004;48.080;11.600;2022-08-16T00:56:43;17.10;99.90
5956;DHT22;3004;48.080;11.600;2022-08-16T00:59:12;17.10;99.90
5956;DHT22;3004;48.080;11.600;2022-08-16T01:01:41;17.00;99.90
5956;DHT22;3004;48.080;11.600;2022-08-16T01:04:10;17.00;99.90
5956;DHT22;3004;48.080;11.600;2022-08-16T01:06:37;16.90;99.90
5956;DHT22;3004;48.080;11.600;2022-08-16T01:09:06;17.00;99.90
5956;DHT22;3004;48.080;11.600;2022-08-16T01:11:35;16.90;99.90
5956;DHT22;3004;48.080;11.600;2022-08-16T01:14:16;16.90;99.90
5956;DHT22;3004;48.080;11.600;2022-08-16T01:16:45;16.90;99.90
5956;DHT22;3004;48.080;11.600;2022-08-16T01:19:18;16.90;99.90
5956;DHT22;3004;48.080;11.600;2022-08-16T01:21:52;16.90;99.90
5956;DHT22;3004;48.080;11.600;2022-08-16T01:24:27;16.80;99.90
5956;DHT22;3004;48.080;11.600;2022-08-16T01:26:59;16.80;99.90
5956;DHT22;3004;48.080;11.600;2022-08-16T01:29:31;16.80;99.90
5956;DHT22;3004;48.080;11.600;2022-08-16T01:31:58;16.70;99.90
5956;DHT22;3004;48.080;11.600;2022-08-16T01:34:25;16.80;99.90
5956;DHT22;3004;48.080;11.600;2022-08-16T01:36:57;16.70;99.90
5956;DHT22;3004;48.080;11.600;2022-08-16T01:39:26;16.80;99.90
5956;DHT22;3004;48.080;11.600;2022-08-16T01:41:54;16.80;99.90
5956;DHT22;3004;48.080;11.600;2022-08-16T01:44:21;16.70;99.90
5956;DHT22;3004;48.080;11.600;2022-08-16T01:46:48;16.70;99.90
5956;DHT22;3004;48.080;11.600;2022-08-16T01:49:20;16.70;99.90
5956;DHT22;3004;48.080;11.600;2022-08-16T01:51:52;16.80;99.90
5956;DHT22;3004;48.080;11.600;2022-08-16T01:54:21;16.80;99.90
5956;DHT22;3004;48.080;11.600;2022-08-16T01:56:50;16.70;99.90
5956;DHT22;3004;48.080;11.600;2022-08-16T01:59:17;16.80;99.90
5956;DHT22;3004;48.080;11.600;2022-08-16T02:01:45;16.70;99.90
5956;DHT22;3004;48.080;11.600;2022-08-16T02:04:12;16.70;99.90
5956;DHT22;3004;48.080;11.600;2022-08-16T02:06:40;16.70;99.90
5956;DHT22;3004;48.080;11.600;2022-08-16T02:09:08;16.70;99.90
5956;DHT22;3004;48.080;11.600;2022-08-16T02:11:37;16.70;99.90
5956;DHT22;3004;48.080;11.600;2022-08-16T02:14:06;16.70;99.90
5956;DHT22;3004;48.080;11.600;2022-08-16T02:16:33;16.60;99.90
5956;DHT22;3004;48.080;11.600;2022-08-16T02:19:00;16.60;99.90
5956;DHT22;3004;48.080;11.600;2022-08-16T02:21:28;16.50;99.90
5956;DHT22;3004;48.080;11.600;2022-08-16T02:23:56;16.50;99.90
5956;DHT22;3004;48.080;11.600;2022-08-16T02:26:23;16.50;99.90
5956;DHT22;3004;48.080;11.600;2022-08-16T02:28:50;16.40;99.90
5956;DHT22;3004;48.080;11.600;2022-08-16T02:31:20;16.40;99.90
5956;DHT22;3004;48.080;11.600;2022-08-16T02:33:47;16.40;99.90
5956;DHT22;3004;48.080;11.600;2022-08-16T02:36:15;16.30;99.90
5956;DHT22;3004;48.080;11.600;2022-08-16T02:38:42;16.30;99.90
5956;DHT22;3004;48.080;11.600;2022-08-16T02:41:09;16.20;99.90
5956;DHT22;3004;48.080;11.600;2022-08-16T02:43:36;16.10;99.90
5956;DHT22;3004;48.080;11.600;2022-08-16T02:46:05;16.10;99.90
5956;DHT22;3004;48.080;11.600;2022-08-16T02:48:34;16.10;99.90
5956;DHT22;3004;48.080;11.600;2022-08-16T02:51:05;16.00;99.90
5956;DHT22;3004;48.080;11.600;2022-08-16T02:53:34;15.90;99.90
5956;DHT22;3004;48.080;11.600;2022-08-16T02:56:02;15.70;99.90
5956;DHT22;3004;48.080;11.600;2022-08-16T02:58:30;15.60;99.90
5956;DHT22;3004;48.080;11.600;2022-08-16T03:00:58;15.70;99.90
5956;DHT22;3004;48.080;11.600;2022-08-16T03:03:26;15.60;99.90
5956;DHT22;3004;48.080;11.600;2022-08-16T03:05:55;15.50;99.90
5956;DHT22;3004;48.080;11.600;2022-08-16T03:08:24;15.40;99.90
5956;DHT22;3004;48.080;11.600;2022-08-16T03:10:51;15.30;99.90
5956;DHT22;3004;48.080;11.600;2022-08-16T03:13:18;15.30;99.90
5956;DHT22;3004;48.080;11.600;2022-08-16T03:15:46;15.20;99.90
5956;DHT22;3004;48.080;11.600;2022-08-16T03:18:13;15.10;99.90
5956;DHT22;3004;48.080;11.600;2022-08-16T03:20:40;15.00;99.90
5956;DHT22;3004;48.080;11.600;2022-08-16T03:23:09;15.00;99.90
5956;DHT22;3004;48.080;11.600;2022-08-16T03:25:37;15.00;99.90
5956;DHT22;3004;48.080;11.600;2022-08-16T03:28:05;15.00;99.90
5956;DHT22;3004;48.080;11.600;2022-08-16T03:30:34;15.00;99.90
5956;DHT22;3004;48.080;11.600;2022-08-16T03:33:01;14.90;99.90
5956;DHT22;3004;48.080;11.600;2022-08-16T03:35:31;14.80;99.90
5956;DHT22;3004;48.080;11.600;2022-08-16T03:38:01;14.80;99.90
5956;DHT22;3004;48.080;11.600;2022-08-16T03:40:31;14.80;99.90
5956;DHT22;3004;48.080;11.600;2022-08-16T03:42:58;14.80;99.90
5956;DHT22;3004;48.080;11.600;2022-08-16T03:45:25;14.80;99.90
5956;DHT22;3004;48.080;11.600;2022-08-16T03:47:52;14.70;99.90
5956;DHT22;3004;48.080;11.600;2022-08-16T03:50:19;14.70;99.90
5956;DHT22;3004;48.080;11.600;2022-08-16T03:52:46;14.70;99.90
5956;DHT22;3004;48.080;11.600;2022-08-16T03:55:13;14.70;99.90
5956;DHT22;3004;48.080;11.600;2022-08-16T03:57:42;14.60;99.90
5956;DHT22;3004;48.080;11.600;2022-08-16T04:00:12;14.60;99.90
5956;DHT22;3004;48.080;11.600;2022-08-16T04:02:39;14.50;99.90
5956;DHT22;3004;48.080;11.600;2022-08-16T04:05:17;14.40;99.90
5956;DHT22;3004;48.080;11.600;2022-08-16T04:07:44;14.50;99.90
5956;DHT22;3004;48.080;11.600;2022-08-16T04:10:15;14.50;99.90
5956;DHT22;3004;48.080;11.600;2022-08-16T04:12:45;14.50;99.90
5956;DHT22;3004;48.080;11.600;2022-08-16T04:15:13;14.50;99.90
5956;DHT22;3004;48.080;11.600;2022-08-16T04:17:50;14.50;99.90
5956;DHT22;3004;48.080;11.600;2022-08-16T04:20:25;14.40;99.90
5956;DHT22;3004;48.080;11.600;2022-08-16T04:22:53;14.40;99.90
5956;DHT22;3004;48.080;11.600;2022-08-16T04:25:20;14.30;99.90
5956;DHT22;3004;48.080;11.600;2022-08-16T04:27:49;14.30;99.90
5956;DHT22;3004;48.080;11.600;2022-08-16T04:30:18;14.40;99.90
5956;DHT22;3004;48.080;11.600;2022-08-16T04:32:49;14.30;99.90
5956;DHT22;3004;48.080;11.600;2022-08-16T04:35:20;14.20;99.90
5956;DHT22;3004;48.080;11.600;2022-08-16T04:37:57;14.20;99.90
5956;DHT22;3004;48.080;11.600;2022-08-16T04:43:39;14.30;99.90
5956;DHT22;3004;48.080;11.600;2022-08-16T04:46:06;14.40;99.90
5956;DHT22;3004;48.080;11.600;2022-08-16T04:48:34;14.40;99.90
5956;DHT22;3004;48.080;11.600;2022-08-16T04:51:01;14.40;99.90
5956;DHT22;3004;48.080;11.600;2022-08-16T04:53:29;14.30;99.90
5956;DHT22;3004;48.080;11.600;2022-08-16T04:55:55;14.20;99.90
5956;DHT22;3004;48.080;11.600;2022-08-16T04:58:22;14.20;99.90
5956;DHT22;3004;48.080;11.600;2022-08-16T05:00:52;14.20;99.90
5956;DHT22;3004;48.080;11.600;2022-08-16T05:03:19;14.30;99.90
5956;DHT22;3004;48.080;11.600;2022-08-16T05:05:47;14.40;99.90
5956;DHT22;3004;48.080;11.600;2022-08-16T05:08:14;14.40;99.90
5956;DHT22;3004;48.080;11.600;2022-08-16T05:10:41;14.40;99.90
5956;DHT22;3004;48.080;11.600;2022-08-16T05:13:09;14.50;99.90
5956;DHT22;3004;48.080;11.600;2022-08-16T05:15:36;14.50;99.90
5956;DHT22;3004;48.080;11.600;2022-08-16T05:18:05;14.50;99.90
5956;DHT22;3004;48.080;11.600;2022-08-16T05:20:32;14.50;99.90
5956;DHT22;3004;48.080;11.600;2022-08-16T05:22:59;14.60;99.90
5956;DHT22;3004;48.080;11.600;2022-08-16T05:25:26;14.60;99.90
5956;DHT22;3004;48.080;11.600;2022-08-16T05:27:53;14.60;99.90
5956;DHT22;3004;48.080;11.600;2022-08-16T05:30:22;14.60;99.90
5956;DHT22;3004;48.080;11.600;2022-08-16T05:32:49;14.60;99.90
5956;DHT22;3004;48.080;11.600;2022-08-16T05:35:28;14.60;99.90
5956;DHT22;3004;48.080;11.600;2022-08-16T05:37:55;14.60;99.90
5956;DHT22;3004;48.080;11.600;2022-08-16T05:40:22;14.70;99.90
5956;DHT22;3004;48.080;11.600;2022-08-16T05:42:49;14.70;99.90
5956;DHT22;3004;48.080;11.600;2022-08-16T05:45:16;14.70;99.90
5956;DHT22;3004;48.080;11.600;2022-08-16T05:47:43;14.60;99.90
5956;DHT22;3004;48.080;11.600;2022-08-16T05:50:11;14.70;99.90
5956;DHT22;3004;48.080;11.600;2022-08-16T05:52:39;14.60;99.90
5956;DHT22;3004;48.080;11.600;2022-08-16T05:55:07;14.70;99.90
5956;DHT22;3004;48.080;11.600;2022-08-16T05:57:34;14.80;99.90
5956;DHT22;3004;48.080;11.600;2022-08-16T06:00:05;15.00;99.90
5956;DHT22;3004;48.080;11.600;2022-08-16T06:02:33;15.30;99.90
5956;DHT22;3004;48.080;11.600;2022-08-16T06:05:01;15.50;99.90
5956;DHT22;3004;48.080;11.600;2022-08-16T06:07:29;15.60;99.90
5956;DHT22;3004;48.080;11.600;2022-08-16T06:09:58;15.80;99.90
5956;DHT22;3004;48.080;11.600;2022-08-16T06:12:26;16.00;99.90
5956;DHT22;3004;48.080;11.600;2022-08-16T06:14:54;16.20;99.90
5956;DHT22;3004;48.080;11.600;2022-08-16T06:17:23;16.40;99.90
5956;DHT22;3004;48.080;11.600;2022-08-16T06:19:50;16.60;99.90
5956;DHT22;3004;48.080;11.600;2022-08-16T06:22:17;16.70;99.90
5956;DHT22;3004;48.080;11.600;2022-08-16T06:24:44;16.80;99.90
5956;DHT22;3004;48.080;11.600;2022-08-16T06:27:12;16.90;99.90
5956;DHT22;3004;48.080;11.600;2022-08-16T06:29:39;17.00;99.90
5956;DHT22;3004;48.080;11.600;2022-08-16T06:32:06;17.20;99.90
5956;DHT22;3004;48.080;11.600;2022-08-16T06:34:33;17.30;99.90
5956;DHT22;3004;48.080;11.600;2022-08-16T06:37:00;17.40;99.90
5956;DHT22;3004;48.080;11.600;2022-08-16T06:39:28;17.60;99.90
5956;DHT22;3004;48.080;11.600;2022-08-16T06:41:55;17.70;99.90
5956;DHT22;3004;48.080;11.600;2022-08-16T06:44:24;17.80;99.90
5956;DHT22;3004;48.080;11.600;2022-08-16T06:46:52;17.90;99.90
5956;DHT22;3004;48.080;11.600;2022-08-16T06:49:19;18.10;99.90
5956;DHT22;3004;48.080;11.600;2022-08-16T06:51:46;18.20;99.90
5956;DHT22;3004;48.080;11.600;2022-08-16T06:54:13;18.40;99.90
5956;DHT22;3004;48.080;11.600;2022-08-16T06:56:40;18.50;99.90
5956;DHT22;3004;48.080;11.600;2022-08-16T06:59:08;18.70;99.90
5956;DHT22;3004;48.080;11.600;2022-08-16T07:01:36;18.80;99.90
5956;DHT22;3004;48.080;11.600;2022-08-16T07:04:03;19.00;99.90
5956;DHT22;3004;48.080;11.600;2022-08-16T07:06:31;19.10;99.90
5956;DHT22;3004;48.080;11.600;2022-08-16T07:08:59;19.30;99.90
5956;DHT22;3004;48.080;11.600;2022-08-16T07:11:26;19.40;99.90
5956;DHT22;3004;48.080;11.600;2022-08-16T07:13:53;19.40;99.90
5956;DHT22;3004;48.080;11.600;2022-08-16T07:16:21;19.60;99.90
5956;DHT22;3004;48.080;11.600;2022-08-16T07:18:49;19.60;99.90
5956;DHT22;3004;48.080;11.600;2022-08-16T07:21:17;19.70;99.90
5956;DHT22;3004;48.080;11.600;2022-08-16T07:23:44;19.90;99.90
5956;DHT22;3004;48.080;11.600;2022-08-16T07:26:17;20.10;99.90
5956;DHT22;3004;48.080;11.600;2022-08-16T07:28:44;20.60;99.90
5956;DHT22;3004;48.080;11.600;2022-08-16T07:31:12;20.70;99.90
5956;DHT22;3004;48.080;11.600;2022-08-16T07:33:40;20.70;99.90
5956;DHT22;3004;48.080;11.600;2022-08-16T07:36:09;20.90;99.90
5956;DHT22;3004;48.080;11.600;2022-08-16T07:38:36;21.10;99.90
5956;DHT22;3004;48.080;11.600;2022-08-16T07:41:04;21.00;99.90
5956;DHT22;3004;48.080;11.600;2022-08-16T07:43:31;20.80;99.90
5956;DHT22;3004;48.080;11.600;2022-08-16T07:45:59;21.10;99.90
5956;DHT22;3004;48.080;11.600;2022-08-16T07:48:26;21.20;99.90
5956;DHT22;3004;48.080;11.600;2022-08-16T07:50:53;21.30;99.90
5956;DHT22;3004;48.080;11.600;2022-08-16T07:53:22;21.30;99.90
5956;DHT22;3004;48.080;11.600;2022-08-16T07:55:49;21.20;99.90
5956;DHT22;3004;48.080;11.600;2022-08-16T07:58:16;21.40;99.90
5956;DHT22;3004;48.080;11.600;2022-08-16T08:00:43;21.30;99.90
5956;DHT22;3004;48.080;11.600;2022-08-16T08:03:10;21.40;99.90
5956;DHT22;3004;48.080;11.600;2022-08-16T08:05:40;21.60;99.90
5956;DHT22;3004;48.080;11.600;2022-08-16T08:08:07;21.80;99.90
5956;DHT22;3004;48.080;11.600;2022-08-16T08:10:35;21.80;99.90
5956;DHT22;3004;48.080;11.600;2022-08-16T08:13:02;21.70;99.90
5956;DHT22;3004;48.080;11.600;2022-08-16T08:15:30;21.70;99.90
5956;DHT22;3004;48.080;11.600;2022-08-16T08:17:57;21.90;99.90
5956;DHT22;3004;48.080;11.600;2022-08-16T08:20:26;22.40;99.90
5956;DHT22;3004;48.080;11.600;2022-08-16T08:22:53;22.40;99.90
5956;DHT22;3004;48.080;11.600;2022-08-16T08:25:23;22.30;99.90
5956;DHT22;3004;48.080;11.600;2022-08-16T08:27:51;22.10;99.90
5956;DHT22;3004;48.080;11.600;2022-08-16T08:30:18;22.00;99.90
5956;DHT22;3004;48.080;11.600;2022-08-16T08:32:45;22.00;99.90
5956;DHT22;3004;48.080;11.600;2022-08-16T08:35:12;21.90;99.90
5956;DHT22;3004;48.080;11.600;2022-08-16T08:37:39;22.00;99.90
5956;DHT22;3004;48.080;11.600;2022-08-16T08:40:08;22.00;99.60
5956;DHT22;3004;48.080;11.600;2022-08-16T08:42:35;22.20;99.90
5956;DHT22;3004;48.080;11.600;2022-08-16T08:45:05;22.60;99.30
5956;DHT22;3004;48.080;11.600;2022-08-16T08:47:35;22.80;99.00
5956;DHT22;3004;48.080;11.600;2022-08-16T08:50:03;22.90;98.90
5956;DHT22;3004;48.080;11.600;2022-08-16T08:52:30;22.50;98.70
5956;DHT22;3004;48.080;11.600;2022-08-16T08:54:57;22.60;99.10
5956;DHT22;3004;48.080;11.600;2022-08-16T08:57:24;23.10;99.50
5956;DHT22;3004;48.080;11.600;2022-08-16T08:59:51;22.80;98.60
5956;DHT22;3004;48.080;11.600;2022-08-16T09:02:21;22.80;99.10
5956;DHT22;3004;48.080;11.600;2022-08-16T09:04:47;22.80;99.30
5956;DHT22;3004;48.080;11.600;2022-08-16T09:07:17;23.00;99.10
5956;DHT22;3004;48.080;11.600;2022-08-16T09:09:46;23.70;98.40
5956;DHT22;3004;48.080;11.600;2022-08-16T09:12:13;23.60;98.50
5956;DHT22;3004;48.080;11.600;2022-08-16T09:14:43;23.40;98.30
5956;DHT22;3004;48.080;11.600;2022-08-16T09:17:10;23.50;98.90
5956;DHT22;3004;48.080;11.600;2022-08-16T09:19:39;23.40;98.20
5956;DHT22;3004;48.080;11.600;2022-08-16T09:22:07;23.60;98.20
5956;DHT22;3004;48.080;11.600;2022-08-16T09:24:35;23.80;97.80
5956;DHT22;3004;48.080;11.600;2022-08-16T09:27:02;23.80;97.40
5956;DHT22;3004;48.080;11.600;2022-08-16T09:29:29;23.90;97.70
5956;DHT22;3004;48.080;11.600;2022-08-16T09:31:57;24.00;97.70
5956;DHT22;3004;48.080;11.600;2022-08-16T09:34:24;23.80;97.20
5956;DHT22;3004;48.080;11.600;2022-08-16T09:36:52;23.80;97.60
5956;DHT22;3004;48.080;11.600;2022-08-16T09:39:22;23.80;97.50
5956;DHT22;3004;48.080;11.600;2022-08-16T09:41:50;23.90;97.60
5956;DHT22;3004;48.080;11.600;2022-08-16T09:44:18;24.10;96.10
5956;DHT22;3004;48.080;11.600;2022-08-16T09:46:46;24.20;95.90
5956;DHT22;3004;48.080;11.600;2022-08-16T09:49:13;24.10;94.50
5956;DHT22;3004;48.080;11.600;2022-08-16T09:51:40;24.00;94.50
5956;DHT22;3004;48.080;11.600;2022-08-16T09:54:08;24.20;94.60
5956;DHT22;3004;48.080;11.600;2022-08-16T09:56:37;24.20;95.00
5956;DHT22;3004;48.080;11.600;2022-08-16T09:59:07;24.20;95.30
5956;DHT22;3004;48.080;11.600;2022-08-16T10:01:37;24.30;95.00
5956;DHT22;3004;48.080;11.600;2022-08-16T10:04:06;24.50;95.20
5956;DHT22;3004;48.080;11.600;2022-08-16T10:06:34;24.60;94.10
5956;DHT22;3004;48.080;11.600;2022-08-16T10:09:01;24.50;93.80
5956;DHT22;3004;48.080;11.600;2022-08-16T10:11:30;24.40;94.80
5956;DHT22;3004;48.080;11.600;2022-08-16T10:14:15;24.40;94.30
5956;DHT22;3004;48.080;11.600;2022-08-16T10:16:42;24.60;94.70
5956;DHT22;3004;48.080;11.600;2022-08-16T10:19:10;24.60;93.80
5956;DHT22;3004;48.080;11.600;2022-08-16T10:21:37;24.90;93.10
5956;DHT22;3004;48.080;11.600;2022-08-16T10:24:05;24.80;93.50
5956;DHT22;3004;48.080;11.600;2022-08-16T10:26:34;24.80;92.90
5956;DHT22;3004;48.080;11.600;2022-08-16T10:29:02;24.60;93.30
5956;DHT22;3004;48.080;11.600;2022-08-16T10:31:30;24.30;92.90
5956;DHT22;3004;48.080;11.600;2022-08-16T10:33:57;24.10;93.80
5956;DHT22;3004;48.080;11.600;2022-08-16T10:36:26;24.50;93.40
5956;DHT22;3004;48.080;11.600;2022-08-16T10:38:53;25.00;91.90
5956;DHT22;3004;48.080;11.600;2022-08-16T10:41:22;25.10;91.20
5956;DHT22;3004;48.080;11.600;2022-08-16T10:43:51;25.00;90.80
5956;DHT22;3004;48.080;11.600;2022-08-16T10:46:18;25.10;91.40
5956;DHT22;3004;48.080;11.600;2022-08-16T10:48:45;25.20;91.00
5956;DHT22;3004;48.080;11.600;2022-08-16T10:51:12;25.40;91.30
5956;DHT22;3004;48.080;11.600;2022-08-16T10:53:39;25.50;90.80
5956;DHT22;3004;48.080;11.600;2022-08-16T10:56:08;25.50;91.10
5956;DHT22;3004;48.080;11.600;2022-08-16T10:58:36;25.50;91.10
5956;DHT22;3004;48.080;11.600;2022-08-16T11:01:08;25.70;91.00
5956;DHT22;3004;48.080;11.600;2022-08-16T11:03:37;25.90;91.80
5956;DHT22;3004;48.080;11.600;2022-08-16T11:06:05;26.00;88.80
5956;DHT22;3004;48.080;11.600;2022-08-16T11:08:33;26.00;90.50
5956;DHT22;3004;48.080;11.600;2022-08-16T11:11:01;26.40;86.40
5956;DHT22;3004;48.080;11.600;2022-08-16T11:13:28;26.30;90.70
5956;DHT22;3004;48.080;11.600;2022-08-16T11:15:55;26.70;89.60
5956;DHT22;3004;48.080;11.600;2022-08-16T11:18:29;26.90;84.20
5956;DHT22;3004;48.080;11.600;2022-08-16T11:20:57;26.90;83.10
5956;DHT22;3004;48.080;11.600;2022-08-16T11:23:24;26.70;82.70
5956;DHT22;3004;48.080;11.600;2022-08-16T11:25:52;26.60;82.90
5956;DHT22;3004;48.080;11.600;2022-08-16T11:28:20;26.80;82.90
5956;DHT22;3004;48.080;11.600;2022-08-16T11:30:47;27.30;85.50
5956;DHT22;3004;48.080;11.600;2022-08-16T11:33:15;27.10;83.10
5956;DHT22;3004;48.080;11.600;2022-08-16T11:35:43;27.10;82.60
5956;DHT22;3004;48.080;11.600;2022-08-16T11:38:12;27.10;83.30
5956;DHT22;3004;48.080;11.600;2022-08-16T11:40:42;26.70;83.30
5956;DHT22;3004;48.080;11.600;2022-08-16T11:43:12;27.00;83.50
5956;DHT22;3004;48.080;11.600;2022-08-16T11:45:39;26.80;83.60
5956;DHT22;3004;48.080;11.600;2022-08-16T11:48:06;26.10;84.30
5956;DHT22;3004;48.080;11.600;2022-08-16T11:50:33;25.90;84.10
5956;DHT22;3004;48.080;11.600;2022-08-16T11:53:03;26.30;84.40
5956;DHT22;3004;48.080;11.600;2022-08-16T11:55:31;26.40;84.30
5956;DHT22;3004;48.080;11.600;2022-08-16T11:57:59;26.20;83.70
5956;DHT22;3004;48.080;11.600;2022-08-16T12:00:28;26.10;84.80
5956;DHT22;3004;48.080;11.600;2022-08-16T12:02:55;26.20;83.80
5956;DHT22;3004;48.080;11.600;2022-08-16T12:05:23;26.30;84.50
5956;DHT22;3004;48.080;11.600;2022-08-16T12:07:51;26.50;83.20
5956;DHT22;3004;48.080;11.600;2022-08-16T12:10:24;26.70;84.00
5956;DHT22;3004;48.080;11.600;2022-08-16T12:12:51;26.90;84.60
5956;DHT22;3004;48.080;11.600;2022-08-16T12:15:19;26.80;82.80
5956;DHT22;3004;48.080;11.600;2022-08-16T12:17:46;26.60;82.80
5956;DHT22;3004;48.080;11.600;2022-08-16T12:20:18;26.30;83.70
5956;DHT22;3004;48.080;11.600;2022-08-16T12:22:46;26.40;82.60
5956;DHT22;3004;48.080;11.600;2022-08-16T12:25:15;26.10;83.40
5956;DHT22;3004;48.080;11.600;2022-08-16T12:27:45;25.70;83.70
5956;DHT22;3004;48.080;11.600;2022-08-16T12:30:14;25.70;84.20
5956;DHT22;3004;48.080;11.600;2022-08-16T12:32:41;25.70;83.50
5956;DHT22;3004;48.080;11.600;2022-08-16T12:35:11;25.60;84.00
5956;DHT22;3004;48.080;11.600;2022-08-16T12:37:38;26.00;84.00
5956;DHT22;3004;48.080;11.600;2022-08-16T12:40:07;26.30;82.40
5956;DHT22;3004;48.080;11.600;2022-08-16T12:42:35;26.20;83.50
5956;DHT22;3004;48.080;11.600;2022-08-16T12:45:05;26.10;82.50
5956;DHT22;3004;48.080;11.600;2022-08-16T12:47:34;26.60;82.70
5956;DHT22;3004;48.080;11.600;2022-08-16T12:50:19;26.40;81.80
5956;DHT22;3004;48.080;11.600;2022-08-16T12:52:46;26.60;80.70
5956;DHT22;3004;48.080;11.600;2022-08-16T12:55:13;26.70;80.00
5956;DHT22;3004;48.080;11.600;2022-08-16T12:57:42;26.70;80.60
5956;DHT22;3004;48.080;11.600;2022-08-16T13:00:13;26.80;81.00
5956;DHT22;3004;48.080;11.600;2022-08-16T13:02:41;27.10;80.00
5956;DHT22;3004;48.080;11.600;2022-08-16T13:05:09;27.20;79.70
5956;DHT22;3004;48.080;11.600;2022-08-16T13:07:37;27.60;77.80
5956;DHT22;3004;48.080;11.600;2022-08-16T13:10:06;27.40;77.40
5956;DHT22;3004;48.080;11.600;2022-08-16T13:12:39;27.60;78.70
5956;DHT22;3004;48.080;11.600;2022-08-16T13:15:12;27.70;77.70
5956;DHT22;3004;48.080;11.600;2022-08-16T13:17:41;28.40;76.20
5956;DHT22;3004;48.080;11.600;2022-08-16T13:20:11;28.40;74.00
5956;DHT22;3004;48.080;11.600;2022-08-16T13:22:42;28.00;75.20
5956;DHT22;3004;48.080;11.600;2022-08-16T13:25:10;28.30;71.20
5956;DHT22;3004;48.080;11.600;2022-08-16T13:27:37;28.50;70.00
5956;DHT22;3004;48.080;11.600;2022-08-16T13:30:05;28.60;69.10
5956;DHT22;3004;48.080;11.600;2022-08-16T13:32:34;29.00;69.70
5956;DHT22;3004;48.080;11.600;2022-08-16T13:35:01;28.80;69.90
5956;DHT22;3004;48.080;11.600;2022-08-16T13:37:28;28.60;68.60
5956;DHT22;3004;48.080;11.600;2022-08-16T13:39:55;28.90;68.70
5956;DHT22;3004;48.080;11.600;2022-08-16T13:42:22;29.40;69.20
5956;DHT22;3004;48.080;11.600;2022-08-16T13:44:49;29.50;68.50
5956;DHT22;3004;48.080;11.600;2022-08-16T13:47:17;29.60;66.20
5956;DHT22;3004;48.080;11.600;2022-08-16T13:49:45;29.40;66.80
5956;DHT22;3004;48.080;11.600;2022-08-16T13:52:12;29.60;66.20
5956;DHT22;3004;48.080;11.600;2022-08-16T13:54:39;29.60;67.40
5956;DHT22;3004;48.080;11.600;2022-08-16T13:57:06;29.40;65.90
5956;DHT22;3004;48.080;11.600;2022-08-16T13:59:33;29.50;67.00
5956;DHT22;3004;48.080;11.600;2022-08-16T14:02:00;28.70;67.50
5956;DHT22;3004;48.080;11.600;2022-08-16T14:04:31;28.30;68.50
5956;DHT22;3004;48.080;11.600;2022-08-16T14:07:01;28.60;69.80
5956;DHT22;3004;48.080;11.600;2022-08-16T14:09:29;28.70;69.70
5956;DHT22;3004;48.080;11.600;2022-08-16T14:11:57;29.20;67.70
5956;DHT22;3004;48.080;11.600;2022-08-16T14:14:24;29.40;66.60
5956;DHT22;3004;48.080;11.600;2022-08-16T14:16:53;29.30;66.70
5956;DHT22;3004;48.080;11.600;2022-08-16T14:19:20;29.40;68.50
5956;DHT22;3004;48.080;11.600;2022-08-16T14:21:47;29.30;67.60
5956;DHT22;3004;48.080;11.600;2022-08-16T14:24:16;29.30;68.60
5956;DHT22;3004;48.080;11.600;2022-08-16T14:26:43;29.10;69.10
5956;DHT22;3004;48.080;11.600;2022-08-16T14:29:10;29.10;70.10
5956;DHT22;3004;48.080;11.600;2022-08-16T14:31:37;29.00;69.40
5956;DHT22;3004;48.080;11.600;2022-08-16T14:34:05;28.40;70.50
5956;DHT22;3004;48.080;11.600;2022-08-16T14:36:35;28.20;71.00
5956;DHT22;3004;48.080;11.600;2022-08-16T14:39:02;28.30;70.50
5956;DHT22;3004;48.080;11.600;2022-08-16T14:41:31;28.40;71.60
5956;DHT22;3004;48.080;11.600;2022-08-16T14:43:58;28.40;70.00
5956;DHT22;3004;48.080;11.600;2022-08-16T14:46:25;28.00;70.30
5956;DHT22;3004;48.080;11.600;2022-08-16T14:48:52;27.90;70.80
5956;DHT22;3004;48.080;11.600;2022-08-16T14:51:21;27.90;70.80
5956;DHT22;3004;48.080;11.600;2022-08-16T14:53:48;28.40;70.80
5956;DHT22;3004;48.080;11.600;2022-08-16T14:56:15;28.50;70.10
5956;DHT22;3004;48.080;11.600;2022-08-16T14:58:43;28.50;71.70
5956;DHT22;3004;48.080;11.600;2022-08-16T15:01:10;28.30;69.40
5956;DHT22;3004;48.080;11.600;2022-08-16T15:03:37;28.50;69.20
5956;DHT22;3004;48.080;11.600;2022-08-16T15:06:05;29.40;69.40
5956;DHT22;3004;48.080;11.600;2022-08-16T15:08:33;29.00;67.90
5956;DHT22;3004;48.080;11.600;2022-08-16T15:11:00;29.10;67.30
5956;DHT22;3004;48.080;11.600;2022-08-16T15:13:27;28.90;67.00
5956;DHT22;3004;48.080;11.600;2022-08-16T15:15:58;28.90;67.30
5956;DHT22;3004;48.080;11.600;2022-08-16T15:18:25;29.00;67.20
5956;DHT22;3004;48.080;11.600;2022-08-16T15:20:52;28.90;67.10
5956;DHT22;3004;48.080;11.600;2022-08-16T15:23:19;29.00;68.10
5956;DHT22;3004;48.080;11.600;2022-08-16T15:25:49;28.50;68.50
5956;DHT22;3004;48.080;11.600;2022-08-16T15:28:18;28.30;67.80
5956;DHT22;3004;48.080;11.600;2022-08-16T15:30:45;27.90;68.40
5956;DHT22;3004;48.080;11.600;2022-08-16T15:33:16;28.20;68.20
5956;DHT22;3004;48.080;11.600;2022-08-16T15:35:44;28.40;69.90
5956;DHT22;3004;48.080;11.600;2022-08-16T15:38:12;28.40;71.30
5956;DHT22;3004;48.080;11.600;2022-08-16T15:40:39;28.40;69.60
5956;DHT22;3004;48.080;11.600;2022-08-16T15:43:07;28.30;69.80
5956;DHT22;3004;48.080;11.600;2022-08-16T15:45:35;28.60;70.10
5956;DHT22;3004;48.080;11.600;2022-08-16T15:48:21;28.60;69.50
5956;DHT22;3004;48.080;11.600;2022-08-16T15:50:50;28.80;68.70
5956;DHT22;3004;48.080;11.600;2022-08-16T15:53:23;28.60;70.60
5956;DHT22;3004;48.080;11.600;2022-08-16T15:55:51;28.50;68.40